sensor_id;sensor_type;location;lat;lon;timestamp;temperature;humidity
37285;DHT22;23172;53.550;9.964;2023-01-08T00:00:25;10.60;95.60
37285;DHT22;23172;53.550;9.964;2023-01-08T00:05:28;10.60;95.70
37285;DHT22;23172;53.550;9.964;2023-01-08T00:10:30;10.60;95.70
37285;DHT22;23172;53.550;9.964;2023-01-08T00:15:33;10.70;95.60
37285;DHT22;23172;53.550;9.964;2023-01-08T00:20:35;10.80;95.40
37285;DHT22;23172;53.550;9.964;2023-01-08T00:25:36;10.80;95.50
37285;DHT22;23172;53.550;9.964;2023-01-08T00:30:39;10.90;95.30
37285;DHT22;23172;53.550;9.964;2023-01-08T00:35:41;11.00;95.20
37285;DHT22;23172;53.550;9.964;2023-01-08T00:40:43;11.00;95.20
37285;DHT22;23172;53.550;9.964;2023-01-08T00:45:46;11.10;95.00
37285;DHT22;23172;53.550;9.964;2023-01-08T00:50:47;10.90;95.10
37285;DHT22;23172;53.550;9.964;2023-01-08T00:55:49;11.00;95.30
37285;DHT22;23172;53.550;9.964;2023-01-08T01:00:52;11.10;95.10
37285;DHT22;23172;53.550;9.964;2023-01-08T01:06:03;11.00;95.10
37285;DHT22;23172;53.550;9.964;2023-01-08T01:11:05;11.00;95.30
37285;DHT22;23172;53.550;9.964;2023-01-08T01:16:08;11.10;95.20
37285;DHT22;23172;53.550;9.964;2023-01-08T01:21:11;11.10;95.20
37285;DHT22;23172;53.550;9.964;2023-01-08T01:26:14;11.10;95.30
37285;DHT22;23172;53.550;9.964;2023-01-08T01:31:17;11.10;95.30
37285;DHT22;23172;53.550;9.964;2023-01-08T01:36:19;11.10;95.40
37285;DHT22;23172;53.550;9.964;2023-01-08T01:41:23;11.20;95.40
37285;DHT22;23172;53.550;9.964;2023-01-08T01:46:31;11.10;95.50
37285;DHT22;23172;53.550;9.964;2023-01-08T01:51:34;11.20;95.40
37285;DHT22;23172;53.550;9.964;2023-01-08T01:56:36;11.10;95.40
37285;DHT22;23172;53.550;9.964;2023-01-08T02:01:40;11.10;95.60
37285;DHT22;23172;53.550;9.964;2023-01-08T02:06:43;11.20;95.60
37285;DHT22;23172;53.550;9.964;2023-01-08T02:11:48;11.20;95.60
37285;DHT22;23172;53.550;9.964;2023-01-08T02:17:14;11.20;95.60
37285;DHT22;23172;53.550;9.964;2023-01-08T02:22:20;11.20;95.70
37285;DHT22;23172;53.550;9.964;2023-01-08T02:27:26;11.30;95.60
37285;DHT22;23172;53.550;9.964;2023-01-08T02:32:31;11.20;95.70
37285;DHT22;23172;53.550;9.964;2023-01-08T02:37:34;11.30;95.60
37285;DHT22;23172;53.550;9.964;2023-01-08T02:42:38;11.30;95.60
37285;DHT22;23172;53.550;9.964;2023-01-08T02:47:44;11.30;95.60
37285;DHT22;23172;53.550;9.964;2023-01-08T02:52:49;11.30;95.60
37285;DHT22;23172;53.550;9.964;2023-01-08T02:57:54;11.30;95.70
37285;DHT22;23172;53.550;9.964;2023-01-08T03:03:00;11.30;95.70
37285;DHT22;23172;53.550;9.964;2023-01-08T03:08:02;11.20;95.70
37285;DHT22;23172;53.550;9.964;2023-01-08T03:13:06;11.20;95.80
37285;DHT22;23172;53.550;9.964;2023-01-08T03:18:10;11.20;95.80
37285;DHT22;23172;53.550;9.964;2023-01-08T03:23:12;11.20;95.90
37285;DHT22;23172;53.550;9.964;2023-01-08T03:28:17;11.20;95.90
37285;DHT22;23172;53.550;9.964;2023-01-08T03:33:20;11.30;96.00
37285;DHT22;23172;53.550;9.964;2023-01-08T03:38:23;11.30;95.90
37285;DHT22;23172;53.550;9.964;2023-01-08T03:43:27;11.30;95.80
37285;DHT22;23172;53.550;9.964;2023-01-08T03:48:29;11.30;95.90
37285;DHT22;23172;53.550;9.964;2023-01-08T03:53:33;11.30;95.90
37285;DHT22;23172;53.550;9.964;2023-01-08T03:58:36;11.30;96.00
37285;DHT22;23172;53.550;9.964;2023-01-08T04:03:37;11.20;96.00
37285;DHT22;23172;53.550;9.964;2023-01-08T04:08:39;11.20;96.00
37285;DHT22;23172;53.550;9.964;2023-01-08T04:13:42;11.30;96.10
37285;DHT22;23172;53.550;9.964;2023-01-08T04:18:43;11.30;96.10
37285;DHT22;23172;53.550;9.964;2023-01-08T04:23:45;11.30;96.20
37285;DHT22;23172;53.550;9.964;2023-01-08T04:28:48;11.30;96.20
37285;DHT22;23172;53.550;9.964;2023-01-08T04:33:50;11.30;96.20
37285;DHT22;23172;53.550;9.964;2023-01-08T04:38:52;11.30;96.20
37285;DHT22;23172;53.550;9.964;2023-01-08T04:43:55;11.40;96.20
37285;DHT22;23172;53.550;9.964;2023-01-08T04:48:56;11.40;96.10
37285;DHT22;23172;53.550;9.964;2023-01-08T04:53:58;11.40;96.20
37285;DHT22;23172;53.550;9.964;2023-01-08T04:59:01;11.40;96.20
37285;DHT22;23172;53.550;9.964;2023-01-08T05:04:03;11.40;96.10
37285;DHT22;23172;53.550;9.964;2023-01-08T05:09:05;11.40;96.20
37285;DHT22;23172;53.550;9.964;2023-01-08T05:14:08;11.40;96.30
37285;DHT22;23172;53.550;9.964;2023-01-08T05:19:10;11.40;96.30
37285;DHT22;23172;53.550;9.964;2023-01-08T05:24:11;11.40;96.30
37285;DHT22;23172;53.550;9.964;2023-01-08T05:29:14;11.40;96.30
37285;DHT22;23172;53.550;9.964;2023-01-08T05:34:16;11.40;96.20
37285;DHT22;23172;53.550;9.964;2023-01-08T05:39:18;11.40;96.30
37285;DHT22;23172;53.550;9.964;2023-01-08T05:44:21;11.40;96.40
37285;DHT22;23172;53.550;9.964;2023-01-08T05:49:23;11.40;96.40
37285;DHT22;23172;53.550;9.964;2023-01-08T05:54:24;11.40;96.50
37285;DHT22;23172;53.550;9.964;2023-01-08T05:59:27;11.40;96.60
37285;DHT22;23172;53.550;9.964;2023-01-08T06:04:29;11.30;96.60
37285;DHT22;23172;53.550;9.964;2023-01-08T06:09:31;11.40;96.70
37285;DHT22;23172;53.550;9.964;2023-01-08T06:14:34;11.30;96.70
37285;DHT22;23172;53.550;9.964;2023-01-08T06:19:37;11.30;96.70
37285;DHT22;23172;53.550;9.964;2023-01-08T06:24:39;11.30;96.80
37285;DHT22;23172;53.550;9.964;2023-01-08T06:29:42;11.30;96.80
37285;DHT22;23172;53.550;9.964;2023-01-08T06:34:44;11.30;96.80
37285;DHT22;23172;53.550;9.964;2023-01-08T06:39:45;11.30;96.80
37285;DHT22;23172;53.550;9.964;2023-01-08T06:44:48;11.30;96.90
37285;DHT22;23172;53.550;9.964;2023-01-08T06:49:50;11.30;96.90
37285;DHT22;23172;53.550;9.964;2023-01-08T06:54:52;11.20;96.90
37285;DHT22;23172;53.550;9.964;2023-01-08T06:59:55;11.20;97.00
37285;DHT22;23172;53.550;9.964;2023-01-08T07:04:56;11.20;97.00
37285;DHT22;23172;53.550;9.964;2023-01-08T07:09:58;11.30;97.00
37285;DHT22;23172;53.550;9.964;2023-01-08T07:15:01;11.20;97.10
37285;DHT22;23172;53.550;9.964;2023-01-08T07:20:03;11.20;97.10
37285;DHT22;23172;53.550;9.964;2023-01-08T07:25:05;11.20;97.10
37285;DHT22;23172;53.550;9.964;2023-01-08T07:30:09;11.30;97.10
37285;DHT22;23172;53.550;9.964;2023-01-08T07:35:11;11.20;97.10
37285;DHT22;23172;53.550;9.964;2023-01-08T07:40:12;11.20;97.10
37285;DHT22;23172;53.550;9.964;2023-01-08T07:45:15;11.30;97.10
37285;DHT22;23172;53.550;9.964;2023-01-08T07:50:17;11.30;97.10
37285;DHT22;23172;53.550;9.964;2023-01-08T07:55:19;11.30;97.10
37285;DHT22;23172;53.550;9.964;2023-01-08T08:00:22;11.40;97.10
37285;DHT22;23172;53.550;9.964;2023-01-08T08:05:24;11.40;97.20
37285;DHT22;23172;53.550;9.964;2023-01-08T08:10:25;11.40;97.40
37285;DHT22;23172;53.550;9.964;2023-01-08T08:15:28;11.40;98.00
37285;DHT22;23172;53.550;9.964;2023-01-08T08:20:30;11.40;98.40
37285;DHT22;23172;53.550;9.964;2023-01-08T08:25:32;11.30;98.50
37285;DHT22;23172;53.550;9.964;2023-01-08T08:30:35;11.30;98.50
37285;DHT22;23172;53.550;9.964;2023-01-08T08:35:37;11.20;98.40
37285;DHT22;23172;53.550;9.964;2023-01-08T08:40:40;11.20;98.50
37285;DHT22;23172;53.550;9.964;2023-01-08T08:45:43;11.20;98.60
37285;DHT22;23172;53.550;9.964;2023-01-08T08:50:45;11.20;98.80
37285;DHT22;23172;53.550;9.964;2023-01-08T08:55:46;11.20;98.80
37285;DHT22;23172;53.550;9.964;2023-01-08T09:00:49;11.10;98.90
37285;DHT22;23172;53.550;9.964;2023-01-08T09:05:51;11.10;99.20
37285;DHT22;23172;53.550;9.964;2023-01-08T09:10:52;11.20;99.30
37285;DHT22;23172;53.550;9.964;2023-01-08T09:15:57;11.10;99.40
37285;DHT22;23172;53.550;9.964;2023-01-08T09:21:03;11.00;99.70
37285;DHT22;23172;53.550;9.964;2023-01-08T09:26:04;11.00;99.90
37285;DHT22;23172;53.550;9.964;2023-01-08T09:31:07;11.10;99.70
37285;DHT22;23172;53.550;9.964;2023-01-08T09:36:09;11.20;99.80
37285;DHT22;23172;53.550;9.964;2023-01-08T09:41:12;11.20;99.90
37285;DHT22;23172;53.550;9.964;2023-01-08T09:46:18;11.20;99.80
37285;DHT22;23172;53.550;9.964;2023-01-08T09:51:22;11.30;99.90
37285;DHT22;23172;53.550;9.964;2023-01-08T09:56:26;11.30;99.70
37285;DHT22;23172;53.550;9.964;2023-01-08T10:01:30;11.40;99.70
37285;DHT22;23172;53.550;9.964;2023-01-08T10:06:35;11.30;99.80
37285;DHT22;23172;53.550;9.964;2023-01-08T10:11:37;11.30;99.80
37285;DHT22;23172;53.550;9.964;2023-01-08T10:16:41;11.40;99.70
37285;DHT22;23172;53.550;9.964;2023-01-08T10:21:44;11.50;99.70
37285;DHT22;23172;53.550;9.964;2023-01-08T10:26:45;11.60;99.60
37285;DHT22;23172;53.550;9.964;2023-01-08T10:31:51;11.60;99.50
37285;DHT22;23172;53.550;9.964;2023-01-08T10:36:53;11.50;99.50
37285;DHT22;23172;53.550;9.964;2023-01-08T10:41:55;11.50;99.60
37285;DHT22;23172;53.550;9.964;2023-01-08T10:46:59;11.60;99.50
37285;DHT22;23172;53.550;9.964;2023-01-08T10:52:03;11.60;99.40
37285;DHT22;23172;53.550;9.964;2023-01-08T10:57:18;11.70;99.30
37285;DHT22;23172;53.550;9.964;2023-01-08T11:02:23;11.60;99.40
37285;DHT22;23172;53.550;9.964;2023-01-08T11:07:26;11.70;99.60
37285;DHT22;23172;53.550;9.964;2023-01-08T11:12:30;11.60;99.70
37285;DHT22;23172;53.550;9.964;2023-01-08T11:17:34;11.60;99.90
37285;DHT22;23172;53.550;9.964;2023-01-08T11:22:36;11.70;99.80
37285;DHT22;23172;53.550;9.964;2023-01-08T11:27:38;11.80;99.80
37285;DHT22;23172;53.550;9.964;2023-01-08T11:32:44;11.90;99.80
37285;DHT22;23172;53.550;9.964;2023-01-08T11:37:49;12.10;99.70
37285;DHT22;23172;53.550;9.964;2023-01-08T11:42:55;12.20;99.50
37285;DHT22;23172;53.550;9.964;2023-01-08T11:48:07;12.20;99.20
37285;DHT22;23172;53.550;9.964;2023-01-08T11:53:13;12.10;99.40
37285;DHT22;23172;53.550;9.964;2023-01-08T11:58:21;12.00;99.50
37285;DHT22;23172;53.550;9.964;2023-01-08T12:03:28;12.00;99.30
37285;DHT22;23172;53.550;9.964;2023-01-08T12:08:35;12.00;98.70
37285;DHT22;23172;53.550;9.964;2023-01-08T12:13:45;11.90;98.70
37285;DHT22;23172;53.550;9.964;2023-01-08T12:18:58;11.90;98.60
37285;DHT22;23172;53.550;9.964;2023-01-08T12:24:10;11.90;98.10
37285;DHT22;23172;53.550;9.964;2023-01-08T12:29:21;11.90;97.80
37285;DHT22;23172;53.550;9.964;2023-01-08T12:34:30;11.90;97.70
37285;DHT22;23172;53.550;9.964;2023-01-08T12:39:37;11.90;97.60
37285;DHT22;23172;53.550;9.964;2023-01-08T12:44:40;11.90;97.70
37285;DHT22;23172;53.550;9.964;2023-01-08T12:49:46;12.00;97.90
37285;DHT22;23172;53.550;9.964;2023-01-08T12:54:52;12.00;98.10
37285;DHT22;23172;53.550;9.964;2023-01-08T12:59:58;12.10;98.20
37285;DHT22;23172;53.550;9.964;2023-01-08T13:05:12;12.10;98.30
37285;DHT22;23172;53.550;9.964;2023-01-08T13:10:19;12.10;98.40
37285;DHT22;23172;53.550;9.964;2023-01-08T13:15:22;12.20;98.20
37285;DHT22;23172;53.550;9.964;2023-01-08T13:20:27;12.20;98.00
37285;DHT22;23172;53.550;9.964;2023-01-08T13:25:32;12.20;98.00
37285;DHT22;23172;53.550;9.964;2023-01-08T13:30:36;12.10;97.90
37285;DHT22;23172;53.550;9.964;2023-01-08T13:35:40;12.10;97.80
37285;DHT22;23172;53.550;9.964;2023-01-08T13:40:48;12.10;97.80
37285;DHT22;23172;53.550;9.964;2023-01-08T13:46:05;12.10;97.90
37285;DHT22;23172;53.550;9.964;2023-01-08T13:51:18;12.00;97.50
37285;DHT22;23172;53.550;9.964;2023-01-08T13:56:25;12.00;97.20
37285;DHT22;23172;53.550;9.964;2023-01-08T14:01:27;12.00;97.30
37285;DHT22;23172;53.550;9.964;2023-01-08T14:06:30;12.00;97.20
37285;DHT22;23172;53.550;9.964;2023-01-08T14:11:35;12.00;97.00
37285;DHT22;23172;53.550;9.964;2023-01-08T14:16:38;12.00;96.20
37285;DHT22;23172;53.550;9.964;2023-01-08T14:21:42;11.90;96.10
37285;DHT22;23172;53.550;9.964;2023-01-08T14:26:51;11.90;95.60
37285;DHT22;23172;53.550;9.964;2023-01-08T14:31:54;11.80;94.40
37285;DHT22;23172;53.550;9.964;2023-01-08T14:36:57;11.80;95.00
37285;DHT22;23172;53.550;9.964;2023-01-08T14:41:59;11.70;94.80
37285;DHT22;23172;53.550;9.964;2023-01-08T14:47:19;11.80;94.90
37285;DHT22;23172;53.550;9.964;2023-01-08T14:52:23;11.70;94.70
37285;DHT22;23172;53.550;9.964;2023-01-08T14:57:25;11.70;94.60
37285;DHT22;23172;53.550;9.964;2023-01-08T15:02:27;11.70;94.00
37285;DHT22;23172;53.550;9.964;2023-01-08T15:07:31;11.60;94.20
37285;DHT22;23172;53.550;9.964;2023-01-08T15:12:33;11.60;94.20
37285;DHT22;23172;53.550;9.964;2023-01-08T15:17:34;11.60;94.20
37285;DHT22;23172;53.550;9.964;2023-01-08T15:22:37;11.60;94.30
37285;DHT22;23172;53.550;9.964;2023-01-08T15:27:39;11.50;94.00
37285;DHT22;23172;53.550;9.964;2023-01-08T15:32:42;11.50;94.10
37285;DHT22;23172;53.550;9.964;2023-01-08T15:37:45;11.50;94.30
37285;DHT22;23172;53.550;9.964;2023-01-08T15:42:46;11.50;94.00
37285;DHT22;23172;53.550;9.964;2023-01-08T15:48:08;11.40;93.90
37285;DHT22;23172;53.550;9.964;2023-01-08T15:53:16;11.30;94.00
37285;DHT22;23172;53.550;9.964;2023-01-08T15:58:19;11.20;93.90
37285;DHT22;23172;53.550;9.964;2023-01-08T16:03:20;11.20;94.20
37285;DHT22;23172;53.550;9.964;2023-01-08T16:08:26;11.20;94.10
37285;DHT22;23172;53.550;9.964;2023-01-08T16:13:27;11.20;94.10
37285;DHT22;23172;53.550;9.964;2023-01-08T16:18:29;11.10;94.20
37285;DHT22;23172;53.550;9.964;2023-01-08T16:23:33;11.00;94.10
37285;DHT22;23172;53.550;9.964;2023-01-08T16:28:35;10.90;94.30
37285;DHT22;23172;53.550;9.964;2023-01-08T16:33:37;10.80;94.40
37285;DHT22;23172;53.550;9.964;2023-01-08T16:38:40;10.80;94.30
37285;DHT22;23172;53.550;9.964;2023-01-08T16:43:41;10.70;94.40
37285;DHT22;23172;53.550;9.964;2023-01-08T16:48:44;10.60;94.40
37285;DHT22;23172;53.550;9.964;2023-01-08T16:53:49;10.60;94.50
37285;DHT22;23172;53.550;9.964;2023-01-08T16:58:50;10.60;94.50
37285;DHT22;23172;53.550;9.964;2023-01-08T17:03:55;10.50;94.60
37285;DHT22;23172;53.550;9.964;2023-01-08T17:08:59;10.60;94.60
37285;DHT22;23172;53.550;9.964;2023-01-08T17:14:00;10.60;94.50
37285;DHT22;23172;53.550;9.964;2023-01-08T17:19:02;10.60;94.90
37285;DHT22;23172;53.550;9.964;2023-01-08T17:24:06;10.60;94.50
37285;DHT22;23172;53.550;9.964;2023-01-08T17:29:07;10.60;94.50
37285;DHT22;23172;53.550;9.964;2023-01-08T17:34:10;10.50;94.70
37285;DHT22;23172;53.550;9.964;2023-01-08T17:39:13;10.60;94.90
37285;DHT22;23172;53.550;9.964;2023-01-08T17:44:15;10.60;95.00
37285;DHT22;23172;53.550;9.964;2023-01-08T17:49:17;10.50;95.70
37285;DHT22;23172;53.550;9.964;2023-01-08T17:54:20;10.50;95.70
37285;DHT22;23172;53.550;9.964;2023-01-08T17:59:22;10.50;95.70
37285;DHT22;23172;53.550;9.964;2023-01-08T18:04:23;10.60;95.70
37285;DHT22;23172;53.550;9.964;2023-01-08T18:09:26;10.60;95.40
37285;DHT22;23172;53.550;9.964;2023-01-08T18:14:28;10.50;95.40
37285;DHT22;23172;53.550;9.964;2023-01-08T18:19:29;10.40;95.60
37285;DHT22;23172;53.550;9.964;2023-01-08T18:24:33;10.40;95.60
37285;DHT22;23172;53.550;9.964;2023-01-08T18:29:35;10.30;95.60
37285;DHT22;23172;53.550;9.964;2023-01-08T18:34:36;10.30;95.40
37285;DHT22;23172;53.550;9.964;2023-01-08T18:39:40;10.30;95.50
37285;DHT22;23172;53.550;9.964;2023-01-08T18:44:41;10.40;95.40
37285;DHT22;23172;53.550;9.964;2023-01-08T18:49:43;10.40;95.30
37285;DHT22;23172;53.550;9.964;2023-01-08T18:54:46;10.30;95.30
37285;DHT22;23172;53.550;9.964;2023-01-08T18:59:48;10.30;95.40
37285;DHT22;23172;53.550;9.964;2023-01-08T19:04:49;10.30;95.50
37285;DHT22;23172;53.550;9.964;2023-01-08T19:09:52;10.20;95.60
37285;DHT22;23172;53.550;9.964;2023-01-08T19:14:54;10.20;95.70
37285;DHT22;23172;53.550;9.964;2023-01-08T19:19:56;10.20;95.70
37285;DHT22;23172;53.550;9.964;2023-01-08T19:24:59;10.20;95.80
37285;DHT22;23172;53.550;9.964;2023-01-08T19:30:00;10.10;95.70
37285;DHT22;23172;53.550;9.964;2023-01-08T19:35:02;10.10;95.90
37285;DHT22;23172;53.550;9.964;2023-01-08T19:40:06;10.20;95.80
37285;DHT22;23172;53.550;9.964;2023-01-08T19:45:08;10.10;95.80
37285;DHT22;23172;53.550;9.964;2023-01-08T19:50:10;10.00;95.80
37285;DHT22;23172;53.550;9.964;2023-01-08T19:55:13;10.00;95.90
37285;DHT22;23172;53.550;9.964;2023-01-08T20:00:17;9.90;96.00
37285;DHT22;23172;53.550;9.964;2023-01-08T20:05:21;9.90;96.10
37285;DHT22;23172;53.550;9.964;2023-01-08T20:10:24;9.80;96.20
37285;DHT22;23172;53.550;9.964;2023-01-08T20:15:26;9.80;96.30
37285;DHT22;23172;53.550;9.964;2023-01-08T20:20:28;9.80;96.40
37285;DHT22;23172;53.550;9.964;2023-01-08T20:25:31;9.70;96.60
37285;DHT22;23172;53.550;9.964;2023-01-08T20:30:33;9.60;96.90
37285;DHT22;23172;53.550;9.964;2023-01-08T20:35:35;9.50;97.00
37285;DHT22;23172;53.550;9.964;2023-01-08T20:40:39;9.50;97.20
37285;DHT22;23172;53.550;9.964;2023-01-08T20:45:40;9.40;97.30
37285;DHT22;23172;53.550;9.964;2023-01-08T20:50:42;9.30;97.50
37285;DHT22;23172;53.550;9.964;2023-01-08T20:55:47;9.30;97.70
37285;DHT22;23172;53.550;9.964;2023-01-08T21:00:49;9.20;97.80
37285;DHT22;23172;53.550;9.964;2023-01-08T21:05:51;9.20;98.10
37285;DHT22;23172;53.550;9.964;2023-01-08T21:10:57;9.00;98.50
37285;DHT22;23172;53.550;9.964;2023-01-08T21:16:00;9.00;98.70
37285;DHT22;23172;53.550;9.964;2023-01-08T21:21:02;9.00;98.80
37285;DHT22;23172;53.550;9.964;2023-01-08T21:26:07;9.00;99.00
37285;DHT22;23172;53.550;9.964;2023-01-08T21:31:10;9.00;99.00
37285;DHT22;23172;53.550;9.964;2023-01-08T21:36:14;9.00;99.00
37285;DHT22;23172;53.550;9.964;2023-01-08T21:41:18;9.00;99.20
37285;DHT22;23172;53.550;9.964;2023-01-08T21:46:33;8.90;99.50
37285;DHT22;23172;53.550;9.964;2023-01-08T21:51:35;8.80;99.60
37285;DHT22;23172;53.550;9.964;2023-01-08T21:56:55;8.80;99.70
37285;DHT22;23172;53.550;9.964;2023-01-08T22:01:57;8.80;99.90
37285;DHT22;23172;53.550;9.964;2023-01-08T22:06:59;8.80;99.80
37285;DHT22;23172;53.550;9.964;2023-01-08T22:12:02;8.80;99.90
37285;DHT22;23172;53.550;9.964;2023-01-08T22:17:03;8.80;99.90
37285;DHT22;23172;53.550;9.964;2023-01-08T22:22:07;8.80;99.90
37285;DHT22;23172;53.550;9.964;2023-01-08T22:27:10;8.70;99.90
37285;DHT22;23172;53.550;9.964;2023-01-08T22:32:12;8.70;99.90
37285;DHT22;23172;53.550;9.964;2023-01-08T22:37:13;8.70;99.90
37285;DHT22;23172;53.550;9.964;2023-01-08T22:42:17;8.70;99.90
37285;DHT22;23172;53.550;9.964;2023-01-08T22:47:19;8.70;99.90
37285;DHT22;23172;53.550;9.964;2023-01-08T22:52:21;8.70;99.90
37285;DHT22;23172;53.550;9.964;2023-01-08T22:57:24;8.60;99.90
37285;DHT22;23172;53.550;9.964;2023-01-08T23:02:25;8.60;99.90
37285;DHT22;23172;53.550;9.964;2023-01-08T23:07:27;8.60;99.90
37285;DHT22;23172;53.550;9.964;2023-01-08T23:12:30;8.50;99.90
37285;DHT22;23172;53.550;9.964;2023-01-08T23:17:33;8.50;99.90
37285;DHT22;23172;53.550;9.964;2023-01-08T23:22:35;8.40;99.90
37285;DHT22;23172;53.550;9.964;2023-01-08T23:27:38;8.40;99.90
37285;DHT22;23172;53.550;9.964;2023-01-08T23:32:39;8.40;99.90
37285;DHT22;23172;53.550;9.964;2023-01-08T23:37:41;8.40;99.90
37285;DHT22;23172;53.550;9.964;2023-01-08T23:42:44;8.40;99.90
37285;DHT22;23172;53.550;9.964;2023-01-08T23:47:46;8.50;99.90
37285;DHT22;23172;53.550;9.964;2023-01-08T23:52:47;8.40;99.90
37285;DHT22;23172;53.550;9.964;2023-01-08T23:57:50;8.40;99.90
